Time;durP1;ratioP1;P1;durP2;ratioP2;P2;SDS_P1;SDS_P2;PMS_P1;PMS_P2;Temp;Humidity;BMP_temperature;BMP_pressure;BME280_temperature;BME280_humidity;BME280_pressure;Samples;Min_cycle;Max_cycle;Signal;HPM_P1;HPM_P2
2023/09/22 00:00:37;;;;;;;16.27;11.65;;;;;;;;;;5102090;28;20055;-73
2023/09/22 00:03:05;;;;;;;13.57;10.30;;;;;;;;;;5112773;28;20122;-73
2023/09/22 00:05:31;;;;;;;14.85;10.73;;;;;;;;;;5114025;28;20416;-73
2023/09/22 00:07:57;;;;;;;14.02;10.45;;;;;;;;;;5108114;28;20495;-73
2023/09/22 00:10:23;;;;;;;12.80;10.15;;;;;;;;;;5095956;28;20036;-73
2023/09/22 00:12:49;;;;;;;12.70;10.07;;;;;;;;;;5112824;28;20127;-73
2023/09/22 00:15:15;;;;;;;11.93;9.75;;;;;;;;;;5101202;28;20086;-73
2023/09/22 00:17:42;;;;;;;14.63;10.05;;;;;;;;;;5106915;28;20070;-73
2023/09/22 00:20:09;;;;;;;13.27;10.20;;;;;;;;;;5113452;28;20035;-73
2023/09/22 00:22:35;;;;;;;13.40;9.82;;;;;;;;;;5112832;28;20100;-73
2023/09/22 00:25:01;;;;;;;13.65;10.07;;;;;;;;;;5103464;28;20047;-73
2023/09/22 00:27:27;;;;;;;15.75;9.75;;;;;;;;;;5102047;28;20047;-73
2023/09/22 00:29:53;;;;;;;12.15;9.55;;;;;;;;;;5107424;28;20083;-73
2023/09/22 00:32:20;;;;;;;12.32;9.38;;;;;;;;;;5105234;28;20047;-73
2023/09/22 00:34:46;;;;;;;13.25;9.57;;;;;;;;;;5106329;28;20043;-73
2023/09/22 00:37:12;;;;;;;12.48;9.07;;;;;;;;;;5113335;28;20044;-73
2023/09/22 00:39:38;;;;;;;14.65;9.70;;;;;;;;;;5113273;28;20052;-73
2023/09/22 00:42:08;;;;;;;12.27;9.25;;;;;;;;;;5108841;28;20133;-73
2023/09/22 00:44:34;;;;;;;13.43;9.50;;;;;;;;;;5107363;28;20044;-73
2023/09/22 00:47:01;;;;;;;13.50;9.88;;;;;;;;;;5112982;28;20043;-73
2023/09/22 00:49:27;;;;;;;12.20;9.43;;;;;;;;;;5111511;28;20510;-73
2023/09/22 00:51:53;;;;;;;12.90;9.35;;;;;;;;;;5102544;28;20043;-73
2023/09/22 00:54:19;;;;;;;14.43;10.23;;;;;;;;;;5112710;28;20468;-73
2023/09/22 00:56:46;;;;;;;14.27;9.93;;;;;;;;;;5100807;28;20047;-73
2023/09/22 00:59:13;;;;;;;13.77;9.60;;;;;;;;;;5106535;28;20047;-73
2023/09/22 01:01:39;;;;;;;12.73;9.43;;;;;;;;;;5100812;28;20180;-73
2023/09/22 01:04:05;;;;;;;13.68;8.85;;;;;;;;;;5113207;28;20044;-73
2023/09/22 01:06:32;;;;;;;15.13;9.70;;;;;;;;;;5108005;28;20521;-73
2023/09/22 01:09:05;;;;;;;14.55;10.23;;;;;;;;;;5107802;28;20124;-73
2023/09/22 01:11:34;;;;;;;14.23;9.73;;;;;;;;;;5111099;28;20046;-73
2023/09/22 01:14:00;;;;;;;16.73;10.43;;;;;;;;;;5111710;28;20046;-73
2023/09/22 01:16:26;;;;;;;14.07;10.25;;;;;;;;;;5117352;28;20047;-73
2023/09/22 01:18:52;;;;;;;13.20;9.63;;;;;;;;;;5114800;27;20071;-73
2023/09/22 01:21:18;;;;;;;13.02;9.32;;;;;;;;;;5108577;28;20474;-73
2023/09/22 01:23:44;;;;;;;13.60;9.30;;;;;;;;;;5112930;28;20089;-73
2023/09/22 01:26:10;;;;;;;14.00;10.00;;;;;;;;;;5112987;28;20054;-73
2023/09/22 01:28:36;;;;;;;14.40;10.13;;;;;;;;;;5113046;28;20036;-73
2023/09/22 01:31:03;;;;;;;14.07;10.02;;;;;;;;;;5106928;28;20048;-73
2023/09/22 01:33:29;;;;;;;12.57;9.43;;;;;;;;;;5111636;28;20075;-73
2023/09/22 01:35:55;;;;;;;12.15;8.75;;;;;;;;;;5106584;28;20069;-73
2023/09/22 01:38:26;;;;;;;12.57;9.32;;;;;;;;;;5109580;28;20059;-73
2023/09/22 01:40:52;;;;;;;12.68;9.05;;;;;;;;;;5114239;28;20048;-73
2023/09/22 01:43:18;;;;;;;14.63;9.57;;;;;;;;;;5114047;28;20475;-73
2023/09/22 01:45:44;;;;;;;12.73;9.63;;;;;;;;;;5105111;28;20048;-73
2023/09/22 01:48:11;;;;;;;13.40;9.55;;;;;;;;;;5112112;28;20432;-73
2023/09/22 01:50:38;;;;;;;14.95;9.52;;;;;;;;;;5116858;28;20036;-73
2023/09/22 01:53:05;;;;;;;14.98;9.70;;;;;;;;;;5108186;28;20119;-73
2023/09/22 01:55:31;;;;;;;13.65;10.00;;;;;;;;;;5096205;28;20047;-73
2023/09/22 01:57:58;;;;;;;14.88;10.50;;;;;;;;;;5112929;28;20035;-73
2023/09/22 02:00:24;;;;;;;14.45;9.77;;;;;;;;;;5112946;28;20047;-73
2023/09/22 02:02:50;;;;;;;14.70;9.30;;;;;;;;;;5101339;28;20348;-73
2023/09/22 02:05:16;;;;;;;15.13;10.43;;;;;;;;;;5116639;28;20039;-73
2023/09/22 02:07:42;;;;;;;16.80;10.77;;;;;;;;;;5116246;28;20036;-73
2023/09/22 02:10:10;;;;;;;15.95;10.30;;;;;;;;;;5115880;28;20467;-73
2023/09/22 02:12:36;;;;;;;16.58;9.68;;;;;;;;;;5116219;28;20368;-73
2023/09/22 02:15:02;;;;;;;17.73;11.38;;;;;;;;;;5111999;28;20101;-73
2023/09/22 02:17:28;;;;;;;16.65;10.35;;;;;;;;;;5109758;28;20047;-73
2023/09/22 02:19:55;;;;;;;16.40;10.43;;;;;;;;;;5104661;28;20051;-73
2023/09/22 02:22:21;;;;;;;14.48;10.05;;;;;;;;;;5116186;28;20089;-73
2023/09/22 02:24:47;;;;;;;14.55;9.88;;;;;;;;;;5115200;28;20044;-73
2023/09/22 02:27:13;;;;;;;17.10;11.02;;;;;;;;;;5116134;28;20074;-73
2023/09/22 02:29:39;;;;;;;14.55;10.27;;;;;;;;;;5113059;28;20062;-73
2023/09/22 02:32:05;;;;;;;16.15;10.63;;;;;;;;;;5112368;28;20048;-73
2023/09/22 02:34:33;;;;;;;15.35;10.25;;;;;;;;;;5115799;28;20078;-73
2023/09/22 02:36:59;;;;;;;15.70;10.35;;;;;;;;;;5115467;28;20373;-73
2023/09/22 02:39:25;;;;;;;19.10;10.85;;;;;;;;;;5104214;28;20445;-73
2023/09/22 02:41:51;;;;;;;16.48;10.57;;;;;;;;;;5113288;28;20491;-73
2023/09/22 02:44:17;;;;;;;16.63;10.85;;;;;;;;;;5104544;28;20447;-73
2023/09/22 02:46:43;;;;;;;18.95;12.00;;;;;;;;;;5098408;28;20123;-73
2023/09/22 02:49:09;;;;;;;18.98;11.63;;;;;;;;;;5110419;28;20040;-73
2023/09/22 02:51:35;;;;;;;17.80;11.98;;;;;;;;;;5113170;28;20044;-73
2023/09/22 02:54:01;;;;;;;18.38;11.95;;;;;;;;;;5115397;28;20054;-73
2023/09/22 02:56:28;;;;;;;16.77;10.63;;;;;;;;;;5115512;28;20050;-73
2023/09/22 02:58:56;;;;;;;18.92;12.30;;;;;;;;;;5100301;27;20052;-73
2023/09/22 03:01:24;;;;;;;21.20;11.90;;;;;;;;;;5113399;28;20043;-73
2023/09/22 03:03:50;;;;;;;17.17;12.20;;;;;;;;;;5115242;27;20040;-73
2023/09/22 03:06:18;;;;;;;18.85;11.65;;;;;;;;;;5115204;28;20047;-73
2023/09/22 03:08:44;;;;;;;18.17;11.57;;;;;;;;;;5102716;28;20103;-73
2023/09/22 03:11:10;;;;;;;19.45;12.20;;;;;;;;;;5114337;27;20032;-73
2023/09/22 03:13:36;;;;;;;20.00;11.70;;;;;;;;;;5105773;28;20064;-73
2023/09/22 03:16:02;;;;;;;17.85;11.68;;;;;;;;;;5115194;28;20043;-73
2023/09/22 03:18:28;;;;;;;19.67;12.20;;;;;;;;;;5115008;28;20039;-73
2023/09/22 03:20:54;;;;;;;19.65;12.02;;;;;;;;;;5115004;28;20047;-73
2023/09/22 03:23:20;;;;;;;22.25;12.07;;;;;;;;;;5102189;28;20081;-73
2023/09/22 03:25:47;;;;;;;19.70;11.95;;;;;;;;;;5099247;28;20067;-73
2023/09/22 03:28:13;;;;;;;22.52;12.00;;;;;;;;;;5106525;28;20055;-73
2023/09/22 03:30:40;;;;;;;19.20;12.10;;;;;;;;;;5104994;28;20040;-73
2023/09/22 03:33:06;;;;;;;20.45;11.85;;;;;;;;;;5107110;28;20076;-73
2023/09/22 03:35:32;;;;;;;22.25;11.98;;;;;;;;;;5113961;28;20043;-72
2023/09/22 03:37:58;;;;;;;19.90;11.65;;;;;;;;;;5112700;28;20545;-73
2023/09/22 03:40:40;;;;;;;19.45;11.38;;;;;;;;;;5113581;28;20532;-73
2023/09/22 03:43:06;;;;;;;19.60;11.15;;;;;;;;;;5108144;28;20095;-73
2023/09/22 03:45:32;;;;;;;19.67;11.43;;;;;;;;;;5114719;28;20047;-73
2023/09/22 03:47:59;;;;;;;20.88;11.18;;;;;;;;;;5111285;28;20071;-73
2023/09/22 03:50:25;;;;;;;22.00;11.57;;;;;;;;;;5114531;27;20043;-73
2023/09/22 03:52:51;;;;;;;23.02;12.57;;;;;;;;;;5114146;28;20133;-73
2023/09/22 03:55:17;;;;;;;21.00;11.40;;;;;;;;;;5111527;28;20486;-73
2023/09/22 03:57:43;;;;;;;21.33;11.80;;;;;;;;;;5107324;28;20373;-73
2023/09/22 04:00:23;;;;;;;21.42;11.75;;;;;;;;;;5114273;28;20063;-73
2023/09/22 04:02:49;;;;;;;25.67;12.02;;;;;;;;;;5114060;28;20118;-73
2023/09/22 04:05:15;;;;;;;25.88;12.07;;;;;;;;;;5113834;28;20519;-73
2023/09/22 04:07:41;;;;;;;24.13;11.70;;;;;;;;;;5113364;28;20043;-73
2023/09/22 04:10:08;;;;;;;23.38;12.10;;;;;;;;;;5110890;28;20039;-73
2023/09/22 04:12:35;;;;;;;19.45;10.55;;;;;;;;;;5105456;28;20036;-73
2023/09/22 04:15:04;;;;;;;20.30;10.93;;;;;;;;;;5113703;28;20078;-73
2023/09/22 04:17:31;;;;;;;20.38;10.35;;;;;;;;;;5113833;28;20131;-73
2023/09/22 04:19:58;;;;;;;17.30;9.95;;;;;;;;;;5113676;28;20066;-73
2023/09/22 04:22:24;;;;;;;17.60;9.82;;;;;;;;;;5114050;28;20067;-73
2023/09/22 04:24:59;;;;;;;18.52;10.13;;;;;;;;;;5112055;28;20044;-73
2023/09/22 04:27:32;;;;;;;14.55;9.73;;;;;;;;;;5109882;28;20043;-73
2023/09/22 04:29:58;;;;;;;14.57;9.18;;;;;;;;;;5111341;28;20051;-73
2023/09/22 04:32:24;;;;;;;15.40;9.52;;;;;;;;;;5106859;28;20040;-73
2023/09/22 04:34:52;;;;;;;15.48;9.52;;;;;;;;;;5107676;28;20035;-73
2023/09/22 04:37:18;;;;;;;13.25;8.80;;;;;;;;;;5100273;28;20430;-73
2023/09/22 04:39:44;;;;;;;13.88;9.32;;;;;;;;;;5112020;28;20479;-73
2023/09/22 04:42:10;;;;;;;13.75;9.18;;;;;;;;;;5110516;28;20084;-73
2023/09/22 04:44:36;;;;;;;16.63;9.27;;;;;;;;;;5109203;28;20096;-73
2023/09/22 04:47:02;;;;;;;14.98;9.45;;;;;;;;;;5100345;28;20511;-73
2023/09/22 04:49:28;;;;;;;15.45;10.20;;;;;;;;;;5112440;28;20048;-73
2023/09/22 04:51:54;;;;;;;16.70;10.45;;;;;;;;;;5113342;28;20046;-73
2023/09/22 04:54:20;;;;;;;15.80;9.95;;;;;;;;;;5099761;28;20051;-73
2023/09/22 04:56:46;;;;;;;17.77;10.27;;;;;;;;;;5103692;28;20140;-73
2023/09/22 04:59:12;;;;;;;17.45;10.10;;;;;;;;;;5120746;27;20077;-73
2023/09/22 05:01:39;;;;;;;15.82;10.65;;;;;;;;;;5100846;28;20147;-72
2023/09/22 05:04:05;;;;;;;17.20;10.43;;;;;;;;;;5099919;28;20051;-72
2023/09/22 05:06:31;;;;;;;16.33;10.68;;;;;;;;;;5113087;28;20032;-72
2023/09/22 05:08:57;;;;;;;15.70;10.70;;;;;;;;;;5111514;28;20043;-72
2023/09/22 05:11:23;;;;;;;17.33;10.48;;;;;;;;;;5102906;28;20043;-73
2023/09/22 05:13:49;;;;;;;17.08;10.85;;;;;;;;;;5107145;28;20051;-73
2023/09/22 05:16:18;;;;;;;17.77;11.32;;;;;;;;;;5113650;28;20107;-72
2023/09/22 05:18:44;;;;;;;17.17;11.50;;;;;;;;;;5100400;28;20440;-73
2023/09/22 05:21:10;;;;;;;17.80;11.52;;;;;;;;;;5101274;28;20039;-73
2023/09/22 05:23:37;;;;;;;19.27;11.70;;;;;;;;;;5109576;28;20035;-73
2023/09/22 05:26:07;;;;;;;20.75;12.70;;;;;;;;;;5112767;28;20047;-72
2023/09/22 05:28:33;;;;;;;20.95;12.02;;;;;;;;;;5112704;28;20525;-73
2023/09/22 05:31:00;;;;;;;21.85;12.27;;;;;;;;;;5103738;28;20066;-74
2023/09/22 05:33:26;;;;;;;18.70;12.25;;;;;;;;;;5110310;28;20118;-73
2023/09/22 05:35:52;;;;;;;19.55;12.70;;;;;;;;;;5095711;28;20052;-74
2023/09/22 05:38:18;;;;;;;21.75;13.30;;;;;;;;;;5103905;28;20154;-72
2023/09/22 05:40:45;;;;;;;21.58;13.32;;;;;;;;;;5101639;28;20122;-73
2023/09/22 05:43:13;;;;;;;21.38;13.18;;;;;;;;;;5112871;28;20071;-72
2023/09/22 05:45:39;;;;;;;20.55;12.88;;;;;;;;;;5107503;28;20050;-74
2023/09/22 05:48:07;;;;;;;20.70;13.25;;;;;;;;;;5107294;28;20510;-73
2023/09/22 05:50:34;;;;;;;26.83;15.02;;;;;;;;;;5112688;28;20041;-72
2023/09/22 05:53:00;;;;;;;26.30;13.93;;;;;;;;;;5101835;28;20048;-72
2023/09/22 05:55:28;;;;;;;26.17;15.02;;;;;;;;;;5099021;28;20634;-73
2023/09/22 05:57:54;;;;;;;27.10;16.00;;;;;;;;;;5108593;28;20110;-72
2023/09/22 06:00:26;;;;;;;24.45;14.75;;;;;;;;;;5101680;28;20063;-73
2023/09/22 06:02:52;;;;;;;28.00;15.98;;;;;;;;;;5099344;27;20093;-73
2023/09/22 06:05:22;;;;;;;26.38;15.63;;;;;;;;;;5097298;28;20047;-73
2023/09/22 06:07:49;;;;;;;29.10;16.27;;;;;;;;;;5115005;28;20065;-73
2023/09/22 06:10:15;;;;;;;27.60;16.23;;;;;;;;;;5113592;28;20039;-73
2023/09/22 06:12:41;;;;;;;28.20;16.42;;;;;;;;;;5116066;28;20046;-73
2023/09/22 06:15:08;;;;;;;27.75;15.95;;;;;;;;;;5106631;27;20168;-73
2023/09/22 06:17:35;;;;;;;29.92;15.38;;;;;;;;;;5101942;28;20472;-74
2023/09/22 06:20:08;;;;;;;24.85;14.77;;;;;;;;;;5110835;28;20048;-73
2023/09/22 06:22:34;;;;;;;26.98;16.05;;;;;;;;;;5096890;28;20067;-72
2023/09/22 06:25:01;;;;;;;28.10;15.80;;;;;;;;;;5108050;28;20059;-72
2023/09/22 06:27:27;;;;;;;29.58;15.65;;;;;;;;;;5116084;28;20433;-72
2023/09/22 06:29:53;;;;;;;24.98;14.30;;;;;;;;;;5115795;28;20118;-72
2023/09/22 06:32:19;;;;;;;28.17;15.38;;;;;;;;;;5102855;28;20145;-72
2023/09/22 06:34:46;;;;;;;27.35;15.45;;;;;;;;;;5115545;28;20514;-72
2023/09/22 06:37:12;;;;;;;27.35;15.18;;;;;;;;;;5116066;28;20165;-72
2023/09/22 06:39:38;;;;;;;29.67;16.23;;;;;;;;;;5115568;28;20052;-72
2023/09/22 06:42:04;;;;;;;31.17;16.92;;;;;;;;;;5115740;27;20154;-72
2023/09/22 06:44:31;;;;;;;29.70;16.25;;;;;;;;;;5115730;28;20043;-72
2023/09/22 06:46:57;;;;;;;29.15;16.88;;;;;;;;;;5112090;28;20544;-72
2023/09/22 06:49:24;;;;;;;32.08;16.95;;;;;;;;;;5105429;28;20406;-72
2023/09/22 06:51:50;;;;;;;27.92;16.63;;;;;;;;;;5115600;28;20086;-72
2023/09/22 06:54:16;;;;;;;31.67;16.70;;;;;;;;;;5115588;28;20036;-72
2023/09/22 06:56:45;;;;;;;30.42;17.15;;;;;;;;;;5115674;28;20039;-72
2023/09/22 06:59:12;;;;;;;29.92;17.10;;;;;;;;;;5115472;28;20097;-72
2023/09/22 07:01:38;;;;;;;27.42;16.50;;;;;;;;;;5102638;28;20052;-72
2023/09/22 07:04:08;;;;;;;32.72;17.50;;;;;;;;;;5115680;28;20132;-72
2023/09/22 07:06:36;;;;;;;32.78;16.52;;;;;;;;;;5115556;28;20051;-72
2023/09/22 07:09:02;;;;;;;33.55;16.42;;;;;;;;;;5114854;28;20120;-72
2023/09/22 07:11:28;;;;;;;33.90;18.70;;;;;;;;;;5115462;28;20035;-72
2023/09/22 07:13:55;;;;;;;31.42;18.70;;;;;;;;;;5114903;27;20513;-72
2023/09/22 07:16:21;;;;;;;31.48;18.15;;;;;;;;;;5114657;28;20070;-72
2023/09/22 07:18:47;;;;;;;31.73;17.27;;;;;;;;;;5113500;28;20100;-72
2023/09/22 07:21:13;;;;;;;33.17;17.52;;;;;;;;;;5115115;28;20371;-72
2023/09/22 07:23:39;;;;;;;30.40;16.33;;;;;;;;;;5099641;28;20048;-72
2023/09/22 07:26:08;;;;;;;31.75;17.20;;;;;;;;;;5103457;28;20050;-72
2023/09/22 07:28:34;;;;;;;31.73;18.00;;;;;;;;;;5112894;28;20123;-72
2023/09/22 07:31:11;;;;;;;33.40;17.92;;;;;;;;;;5094566;28;20071;-72
2023/09/22 07:33:37;;;;;;;30.02;17.65;;;;;;;;;;5111079;28;20036;-72
2023/09/22 07:36:03;;;;;;;27.55;16.10;;;;;;;;;;5114879;28;20039;-72
2023/09/22 07:38:29;;;;;;;26.80;16.83;;;;;;;;;;5114466;28;20131;-72
2023/09/22 07:40:55;;;;;;;30.48;17.67;;;;;;;;;;5115307;28;20118;-72
2023/09/22 07:43:28;;;;;;;29.00;18.40;;;;;;;;;;5111406;28;20050;-73
2023/09/22 07:45:54;;;;;;;27.48;16.85;;;;;;;;;;5096300;27;20083;-72
2023/09/22 07:48:20;;;;;;;26.77;16.27;;;;;;;;;;5102280;28;20043;-72
2023/09/22 07:50:46;;;;;;;27.48;16.13;;;;;;;;;;5114486;28;20039;-72
2023/09/22 07:53:12;;;;;;;26.45;16.70;;;;;;;;;;5114664;28;20040;-72
2023/09/22 07:55:41;;;;;;;26.17;15.93;;;;;;;;;;5114329;28;20112;-72
2023/09/22 07:58:09;;;;;;;30.38;16.33;;;;;;;;;;5114028;28;20043;-72
2023/09/22 08:00:38;;;;;;;25.10;15.48;;;;;;;;;;5109109;27;20040;-72
2023/09/22 08:03:04;;;;;;;25.55;15.20;;;;;;;;;;5093944;27;20048;-72
2023/09/22 08:05:30;;;;;;;23.08;15.45;;;;;;;;;;5106400;28;20040;-72
2023/09/22 08:07:58;;;;;;;27.05;15.18;;;;;;;;;;5113953;28;20071;-72
2023/09/22 08:10:24;;;;;;;23.55;14.73;;;;;;;;;;5098537;28;20052;-72
2023/09/22 08:12:51;;;;;;;21.08;13.68;;;;;;;;;;5104065;28;20486;-72
2023/09/22 08:15:17;;;;;;;23.27;14.05;;;;;;;;;;5095113;28;20070;-72
2023/09/22 08:17:44;;;;;;;20.67;14.15;;;;;;;;;;5112683;28;20484;-72
2023/09/22 08:20:12;;;;;;;22.90;14.35;;;;;;;;;;5113740;28;20491;-72
2023/09/22 08:22:40;;;;;;;20.42;13.60;;;;;;;;;;5113199;28;20037;-72
2023/09/22 08:25:08;;;;;;;20.10;13.70;;;;;;;;;;5113675;28;20475;-72
2023/09/22 08:27:35;;;;;;;18.85;12.55;;;;;;;;;;5113678;28;20048;-72
2023/09/22 08:30:09;;;;;;;14.10;10.82;;;;;;;;;;5100018;28;20058;-72
2023/09/22 08:32:37;;;;;;;15.35;11.52;;;;;;;;;;5107534;28;20658;-72
2023/09/22 08:35:04;;;;;;;15.32;10.25;;;;;;;;;;5099731;28;20422;-72
2023/09/22 08:37:32;;;;;;;14.68;10.55;;;;;;;;;;5102348;28;20065;-72
2023/09/22 08:40:00;;;;;;;14.30;10.73;;;;;;;;;;5113146;28;20055;-72
2023/09/22 08:42:26;;;;;;;14.80;10.00;;;;;;;;;;5113503;28;20075;-72
2023/09/22 08:44:53;;;;;;;13.52;9.27;;;;;;;;;;5111047;28;20039;-72
2023/09/22 08:47:21;;;;;;;15.50;9.63;;;;;;;;;;5093041;28;20118;-72
2023/09/22 08:49:47;;;;;;;14.18;10.63;;;;;;;;;;5095722;28;20071;-72
2023/09/22 08:52:13;;;;;;;14.95;9.63;;;;;;;;;;5104528;28;20376;-72
2023/09/22 08:54:39;;;;;;;13.05;9.73;;;;;;;;;;5099367;28;20047;-72
2023/09/22 08:57:06;;;;;;;12.07;8.95;;;;;;;;;;5113737;28;20123;-72
2023/09/22 08:59:32;;;;;;;10.38;8.63;;;;;;;;;;5100058;28;20088;-72
2023/09/22 09:01:58;;;;;;;11.25;8.40;;;;;;;;;;5113109;28;20040;-72
2023/09/22 09:04:39;;;;;;;11.77;8.77;;;;;;;;;;5113350;28;20112;-72
2023/09/22 09:07:05;;;;;;;11.55;7.95;;;;;;;;;;5104487;28;20484;-72
2023/09/22 09:09:44;;;;;;;9.40;8.00;;;;;;;;;;5112348;28;20036;-72
2023/09/22 09:12:11;;;;;;;11.50;7.72;;;;;;;;;;5113047;28;20070;-72
2023/09/22 09:14:41;;;;;;;15.02;7.72;;;;;;;;;;5113326;28;20054;-72
2023/09/22 09:17:18;;;;;;;9.75;7.68;;;;;;;;;;5113293;28;20040;-73
2023/09/22 09:19:46;;;;;;;10.27;7.95;;;;;;;;;;5113356;28;20515;-72
2023/09/22 09:22:14;;;;;;;9.57;7.43;;;;;;;;;;5110692;28;20138;-73
2023/09/22 09:24:41;;;;;;;10.85;7.63;;;;;;;;;;5113100;28;20392;-72
2023/09/22 09:27:37;;;;;;;9.85;6.90;;;;;;;;;;5123871;28;20036;-72
2023/09/22 09:30:13;;;;;;;8.35;6.88;;;;;;;;;;5097970;28;20051;-73
2023/09/22 09:32:40;;;;;;;8.73;6.53;;;;;;;;;;5113578;28;20118;-73
2023/09/22 09:35:07;;;;;;;7.25;5.78;;;;;;;;;;5115795;28;20486;-72
2023/09/22 09:37:40;;;;;;;6.65;5.85;;;;;;;;;;5115911;28;20040;-72
2023/09/22 09:40:10;;;;;;;6.72;5.88;;;;;;;;;;5117213;28;20051;-72
2023/09/22 09:42:38;;;;;;;8.15;6.22;;;;;;;;;;5116850;28;20059;-73
2023/09/22 09:45:05;;;;;;;6.95;6.05;;;;;;;;;;5112638;28;20055;-73
2023/09/22 09:47:35;;;;;;;6.60;5.88;;;;;;;;;;5096242;28;20044;-72
2023/09/22 09:50:04;;;;;;;7.68;5.40;;;;;;;;;;5114953;28;20079;-73
2023/09/22 09:52:36;;;;;;;7.47;5.43;;;;;;;;;;5116213;28;20036;-73
2023/09/22 09:55:09;;;;;;;7.38;5.35;;;;;;;;;;5117075;28;20039;-72
2023/09/22 09:57:39;;;;;;;5.95;5.00;;;;;;;;;;5103077;27;20048;-73
2023/09/22 10:00:14;;;;;;;7.53;4.90;;;;;;;;;;5096465;28;20047;-73
2023/09/22 10:02:43;;;;;;;6.05;4.63;;;;;;;;;;5112334;28;20052;-72
2023/09/22 10:05:14;;;;;;;5.35;4.57;;;;;;;;;;5116183;28;20048;-72
2023/09/22 10:07:42;;;;;;;6.07;4.55;;;;;;;;;;5103856;28;20089;-72
2023/09/22 10:10:09;;;;;;;4.38;3.97;;;;;;;;;;5116475;28;20048;-72
2023/09/22 10:12:35;;;;;;;5.68;3.60;;;;;;;;;;5116559;28;20070;-73
2023/09/22 10:15:04;;;;;;;4.72;3.70;;;;;;;;;;5116270;28;20427;-73
2023/09/22 10:17:31;;;;;;;3.97;3.10;;;;;;;;;;5116115;28;20039;-72
2023/09/22 10:19:57;;;;;;;3.95;3.10;;;;;;;;;;5116385;28;20521;-72
2023/09/22 10:22:23;;;;;;;4.45;3.00;;;;;;;;;;5100744;28;20063;-73
2023/09/22 10:25:09;;;;;;;4.43;2.85;;;;;;;;;;5106813;28;20044;-72
2023/09/22 10:27:57;;;;;;;3.30;3.00;;;;;;;;;;5116542;28;20071;-72
2023/09/22 10:30:42;;;;;;;4.43;2.92;;;;;;;;;;5097348;28;20050;-72
2023/09/22 10:33:26;;;;;;;3.78;2.92;;;;;;;;;;5103220;28;20044;-72
2023/09/22 10:35:53;;;;;;;5.25;3.03;;;;;;;;;;5097566;28;20035;-72
2023/09/22 10:38:22;;;;;;;3.53;2.80;;;;;;;;;;5108875;28;20518;-72
2023/09/22 10:41:06;;;;;;;4.28;3.20;;;;;;;;;;5115961;28;20124;-72
2023/09/22 10:43:33;;;;;;;5.57;3.33;;;;;;;;;;5115537;28;20047;-72
2023/09/22 10:45:59;;;;;;;4.95;3.20;;;;;;;;;;5115236;28;20047;-72
2023/09/22 10:48:38;;;;;;;3.30;3.00;;;;;;;;;;5097072;28;20077;-72
2023/09/22 10:51:06;;;;;;;3.67;3.28;;;;;;;;;;5111873;28;20113;-72
2023/09/22 10:53:38;;;;;;;3.95;3.30;;;;;;;;;;5102201;28;20043;-72
2023/09/22 10:56:05;;;;;;;5.35;3.17;;;;;;;;;;5115107;28;20514;-72
2023/09/22 10:58:31;;;;;;;4.35;3.10;;;;;;;;;;5115707;27;20095;-72
2023/09/22 11:00:59;;;;;;;3.90;3.15;;;;;;;;;;5115296;28;20127;-72
2023/09/22 11:03:37;;;;;;;3.55;2.95;;;;;;;;;;5106174;28;20044;-72
2023/09/22 11:06:06;;;;;;;4.75;3.30;;;;;;;;;;5110250;28;20036;-72
2023/09/22 11:08:35;;;;;;;3.80;3.28;;;;;;;;;;5114795;28;20377;-72
2023/09/22 11:11:02;;;;;;;4.85;3.38;;;;;;;;;;5114799;28;20380;-72
2023/09/22 11:13:28;;;;;;;5.35;3.08;;;;;;;;;;5114943;28;20052;-72
2023/09/22 11:15:56;;;;;;;3.65;3.30;;;;;;;;;;5110802;28;20071;-72
2023/09/22 11:18:25;;;;;;;3.78;3.25;;;;;;;;;;5094600;28;20113;-72
2023/09/22 11:20:56;;;;;;;5.28;3.30;;;;;;;;;;5110241;28;20483;-72
2023/09/22 11:23:22;;;;;;;3.38;3.03;;;;;;;;;;5096599;28;20036;-73
2023/09/22 11:25:56;;;;;;;3.70;3.20;;;;;;;;;;5110328;28;20043;-73
2023/09/22 11:28:22;;;;;;;4.28;3.40;;;;;;;;;;5104507;28;20522;-73
2023/09/22 11:30:50;;;;;;;3.85;3.00;;;;;;;;;;5103050;28;20480;-73
2023/09/22 11:33:16;;;;;;;4.28;3.25;;;;;;;;;;5103837;28;20040;-73
2023/09/22 11:35:42;;;;;;;3.28;2.97;;;;;;;;;;5100907;28;20043;-73
2023/09/22 11:38:28;;;;;;;5.03;3.28;;;;;;;;;;5101028;28;20131;-73
2023/09/22 11:41:04;;;;;;;3.13;2.83;;;;;;;;;;5104164;28;20086;-73
2023/09/22 11:43:30;;;;;;;4.13;3.03;;;;;;;;;;5097727;27;20055;-73
2023/09/22 11:46:06;;;;;;;3.47;2.70;;;;;;;;;;5105255;28;20047;-73
2023/09/22 11:48:32;;;;;;;;;;;;;;;;;;5114137;28;20463;-73
2023/09/22 11:51:01;;;;;;;4.25;3.10;;;;;;;;;;5108117;28;19920;-73
2023/09/22 11:53:30;;;;;;;2.80;2.50;;;;;;;;;;5102999;28;20134;-73
2023/09/22 11:55:56;;;;;;;3.42;2.60;;;;;;;;;;5103212;28;20463;-73
2023/09/22 11:58:25;;;;;;;5.45;2.90;;;;;;;;;;5112702;28;20376;-73
2023/09/22 12:00:51;;;;;;;3.40;2.90;;;;;;;;;;5113931;28;20049;-73
2023/09/22 12:03:18;;;;;;;2.85;2.55;;;;;;;;;;5114093;28;20114;-73
2023/09/22 12:05:44;;;;;;;5.07;2.90;;;;;;;;;;5109390;28;20043;-73
2023/09/22 12:08:10;;;;;;;2.55;2.33;;;;;;;;;;5112554;28;20122;-73
2023/09/22 12:10:37;;;;;;;2.90;2.40;;;;;;;;;;5099871;28;20040;-73
2023/09/22 12:13:03;;;;;;;5.68;2.72;;;;;;;;;;5113789;28;20047;-73
2023/09/22 12:15:31;;;;;;;3.92;2.85;;;;;;;;;;5114327;28;20081;-73
2023/09/22 12:17:57;;;;;;;4.15;2.60;;;;;;;;;;5112382;28;20063;-73
2023/09/22 12:20:23;;;;;;;3.00;2.70;;;;;;;;;;5109617;28;20049;-73
2023/09/22 12:22:49;;;;;;;3.33;2.50;;;;;;;;;;5108855;28;20115;-73
2023/09/22 12:25:15;;;;;;;4.70;2.67;;;;;;;;;;5107616;28;20177;-73
2023/09/22 12:27:41;;;;;;;3.00;2.50;;;;;;;;;;5113631;28;20511;-73
2023/09/22 12:30:07;;;;;;;4.10;2.33;;;;;;;;;;5099649;28;20052;-73
2023/09/22 12:32:33;;;;;;;3.10;2.50;;;;;;;;;;5113228;28;20043;-73
2023/09/22 12:35:00;;;;;;;2.90;2.17;;;;;;;;;;5110012;28;20353;-73
2023/09/22 12:37:26;;;;;;;2.33;1.75;;;;;;;;;;5106966;28;20040;-73
2023/09/22 12:39:52;;;;;;;3.30;1.65;;;;;;;;;;5105377;28;20055;-73
2023/09/22 12:42:18;;;;;;;1.75;1.60;;;;;;;;;;5113503;28;20051;-73
2023/09/22 12:44:45;;;;;;;2.05;1.70;;;;;;;;;;5097657;28;20079;-73
2023/09/22 12:47:11;;;;;;;2.30;1.80;;;;;;;;;;5093328;28;20119;-73
2023/09/22 12:49:38;;;;;;;2.95;1.70;;;;;;;;;;5107425;28;20122;-73
2023/09/22 12:52:04;;;;;;;3.33;1.70;;;;;;;;;;5112968;28;20514;-73
2023/09/22 12:54:30;;;;;;;2.22;1.60;;;;;;;;;;5109259;28;20372;-73
2023/09/22 12:56:56;;;;;;;3.60;2.00;;;;;;;;;;5109255;28;20074;-73
2023/09/22 12:59:22;;;;;;;3.20;2.00;;;;;;;;;;5102631;28;20082;-73
2023/09/22 13:01:48;;;;;;;3.20;1.98;;;;;;;;;;5101728;28;20043;-73
2023/09/22 13:04:14;;;;;;;3.63;1.85;;;;;;;;;;5112922;28;20101;-73
2023/09/22 13:06:42;;;;;;;2.78;1.70;;;;;;;;;;5113472;28;20040;-73
2023/09/22 13:09:08;;;;;;;3.10;2.00;;;;;;;;;;5113957;28;20059;-73
2023/09/22 13:11:34;;;;;;;3.95;1.85;;;;;;;;;;5114252;28;20040;-73
2023/09/22 13:14:01;;;;;;;3.95;2.15;;;;;;;;;;5105212;28;20096;-73
2023/09/22 13:16:27;;;;;;;2.40;1.70;;;;;;;;;;5125799;27;20108;-73
2023/09/22 13:18:53;;;;;;;2.00;1.60;;;;;;;;;;5118229;27;20031;-73
2023/09/22 13:21:19;;;;;;;2.28;1.40;;;;;;;;;;5116981;28;20043;-73
2023/09/22 13:23:46;;;;;;;1.25;1.20;;;;;;;;;;5116995;28;20048;-73
2023/09/22 13:26:22;;;;;;;2.30;1.40;;;;;;;;;;5116035;28;20036;-73
2023/09/22 13:28:50;;;;;;;3.42;1.40;;;;;;;;;;5111974;28;20044;-73
2023/09/22 13:31:16;;;;;;;1.45;1.30;;;;;;;;;;5108974;27;20180;-73
2023/09/22 13:33:43;;;;;;;2.30;1.35;;;;;;;;;;5105695;28;20471;-73
2023/09/22 13:36:16;;;;;;;1.90;1.40;;;;;;;;;;5107153;28;20048;-73
2023/09/22 13:38:42;;;;;;;2.30;1.60;;;;;;;;;;5099276;28;20072;-73
2023/09/22 13:41:12;;;;;;;1.70;1.30;;;;;;;;;;5112493;28;20383;-73
2023/09/22 13:43:38;;;;;;;2.53;1.08;;;;;;;;;;5097310;28;20510;-73
2023/09/22 13:46:17;;;;;;;1.30;1.10;;;;;;;;;;5100365;28;20044;-73
2023/09/22 13:48:44;;;;;;;3.90;1.40;;;;;;;;;;5105136;28;20046;-73
2023/09/22 13:51:10;;;;;;;2.60;1.60;;;;;;;;;;5096323;28;20075;-73
2023/09/22 13:53:37;;;;;;;2.80;1.70;;;;;;;;;;5101485;28;20036;-73
2023/09/22 13:56:07;;;;;;;2.13;1.42;;;;;;;;;;5106162;28;20071;-73
2023/09/22 13:58:34;;;;;;;1.88;1.40;;;;;;;;;;5116110;28;20031;-73
2023/09/22 14:01:09;;;;;;;2.33;1.55;;;;;;;;;;5108518;28;20118;-73
2023/09/22 14:03:35;;;;;;;;;;;;;;;;;;5108900;28;20460;-73
2023/09/22 14:06:01;;;;;;;2.42;1.40;;;;;;;;;;5114713;28;19931;-73
2023/09/22 14:08:27;;;;;;;1.25;1.15;;;;;;;;;;5110254;28;20109;-72
2023/09/22 14:10:55;;;;;;;1.60;1.05;;;;;;;;;;5110036;28;20039;-72
2023/09/22 14:13:21;;;;;;;1.65;1.55;;;;;;;;;;5106081;28;20044;-72
2023/09/22 14:15:48;;;;;;;1.65;1.23;;;;;;;;;;5112496;28;20143;-72
2023/09/22 14:18:14;;;;;;;1.73;1.23;;;;;;;;;;5116003;28;20495;-72
2023/09/22 14:20:41;;;;;;;4.82;1.73;;;;;;;;;;5115006;28;20089;-72
2023/09/22 14:23:08;;;;;;;3.38;1.50;;;;;;;;;;5099145;27;20529;-72
2023/09/22 14:25:37;;;;;;;2.83;1.23;;;;;;;;;;5112474;28;20507;-72
2023/09/22 14:28:12;;;;;;;2.53;1.10;;;;;;;;;;5113780;28;20466;-72
2023/09/22 14:30:41;;;;;;;1.85;1.08;;;;;;;;;;5115040;28;20046;-72